sensor_id;sensor_type;location;lat;lon;timestamp;temperature;humidity
3727;DHT22;1879;45.876;12.300;2023-02-27T00:00:33;7.00;56.10
3727;DHT22;1879;45.876;12.300;2023-02-27T00:03:00;7.00;56.30
3727;DHT22;1879;45.876;12.300;2023-02-27T00:05:27;6.90;56.30
3727;DHT22;1879;45.876;12.300;2023-02-27T00:07:54;6.90;56.60
3727;DHT22;1879;45.876;12.300;2023-02-27T00:10:21;6.90;56.50
3727;DHT22;1879;45.876;12.300;2023-02-27T00:12:48;6.90;56.80
3727;DHT22;1879;45.876;12.300;2023-02-27T00:15:18;6.90;57.10
3727;DHT22;1879;45.876;12.300;2023-02-27T00:17:45;6.90;57.40
3727;DHT22;1879;45.876;12.300;2023-02-27T00:20:14;6.90;57.30
3727;DHT22;1879;45.876;12.300;2023-02-27T00:22:41;6.90;57.50
3727;DHT22;1879;45.876;12.300;2023-02-27T00:25:09;6.80;57.60
3727;DHT22;1879;45.876;12.300;2023-02-27T00:27:36;6.80;57.80
3727;DHT22;1879;45.876;12.300;2023-02-27T00:30:04;6.70;57.90
3727;DHT22;1879;45.876;12.300;2023-02-27T00:32:32;6.70;58.20
3727;DHT22;1879;45.876;12.300;2023-02-27T00:35:01;6.70;58.70
3727;DHT22;1879;45.876;12.300;2023-02-27T00:37:28;6.70;58.70
3727;DHT22;1879;45.876;12.300;2023-02-27T00:39:55;6.70;58.20
3727;DHT22;1879;45.876;12.300;2023-02-27T00:42:22;6.80;58.50
3727;DHT22;1879;45.876;12.300;2023-02-27T00:44:48;6.80;57.80
3727;DHT22;1879;45.876;12.300;2023-02-27T00:47:16;6.70;58.00
3727;DHT22;1879;45.876;12.300;2023-02-27T00:49:44;6.70;58.20
3727;DHT22;1879;45.876;12.300;2023-02-27T00:52:11;6.70;58.30
3727;DHT22;1879;45.876;12.300;2023-02-27T00:54:38;6.70;58.50
3727;DHT22;1879;45.876;12.300;2023-02-27T00:57:05;6.60;58.70
3727;DHT22;1879;45.876;12.300;2023-02-27T00:59:33;6.60;58.80
3727;DHT22;1879;45.876;12.300;2023-02-27T01:02:01;6.70;58.90
3727;DHT22;1879;45.876;12.300;2023-02-27T01:04:30;6.70;59.00
3727;DHT22;1879;45.876;12.300;2023-02-27T01:07:01;6.60;59.30
3727;DHT22;1879;45.876;12.300;2023-02-27T01:09:28;6.60;59.40
3727;DHT22;1879;45.876;12.300;2023-02-27T01:11:55;6.50;59.70
3727;DHT22;1879;45.876;12.300;2023-02-27T01:14:22;6.60;59.80
3727;DHT22;1879;45.876;12.300;2023-02-27T01:16:49;6.60;59.90
3727;DHT22;1879;45.876;12.300;2023-02-27T01:19:16;6.70;60.00
3727;DHT22;1879;45.876;12.300;2023-02-27T01:21:43;6.70;60.10
3727;DHT22;1879;45.876;12.300;2023-02-27T01:24:12;6.70;60.00
3727;DHT22;1879;45.876;12.300;2023-02-27T01:26:39;6.70;60.10
3727;DHT22;1879;45.876;12.300;2023-02-27T01:29:06;6.70;60.60
3727;DHT22;1879;45.876;12.300;2023-02-27T01:31:33;6.70;59.90
3727;DHT22;1879;45.876;12.300;2023-02-27T01:34:00;6.70;60.20
3727;DHT22;1879;45.876;12.300;2023-02-27T01:36:28;6.70;60.20
3727;DHT22;1879;45.876;12.300;2023-02-27T01:38:55;6.60;59.80
3727;DHT22;1879;45.876;12.300;2023-02-27T01:41:23;6.60;60.10
3727;DHT22;1879;45.876;12.300;2023-02-27T01:43:55;6.50;60.00
3727;DHT22;1879;45.876;12.300;2023-02-27T01:46:23;6.50;60.20
3727;DHT22;1879;45.876;12.300;2023-02-27T01:48:51;6.50;59.90
3727;DHT22;1879;45.876;12.300;2023-02-27T01:51:21;6.50;59.90
3727;DHT22;1879;45.876;12.300;2023-02-27T01:53:50;6.40;60.20
3727;DHT22;1879;45.876;12.300;2023-02-27T01:56:20;6.40;60.40
3727;DHT22;1879;45.876;12.300;2023-02-27T01:58:49;6.40;60.40
3727;DHT22;1879;45.876;12.300;2023-02-27T02:01:18;6.30;60.50
3727;DHT22;1879;45.876;12.300;2023-02-27T02:03:51;6.30;60.50
3727;DHT22;1879;45.876;12.300;2023-02-27T02:06:20;6.20;60.60
3727;DHT22;1879;45.876;12.300;2023-02-27T02:08:48;6.20;60.70
3727;DHT22;1879;45.876;12.300;2023-02-27T02:11:20;6.20;61.10
3727;DHT22;1879;45.876;12.300;2023-02-27T02:13:55;6.20;61.50
3727;DHT22;1879;45.876;12.300;2023-02-27T02:16:34;6.10;61.10
3727;DHT22;1879;45.876;12.300;2023-02-27T02:19:21;6.10;61.70
3727;DHT22;1879;45.876;12.300;2023-02-27T02:28:20;6.00;61.10
3727;DHT22;1879;45.876;12.300;2023-02-27T02:31:21;6.10;61.20
3727;DHT22;1879;45.876;12.300;2023-02-27T02:34:18;6.00;61.50
3727;DHT22;1879;45.876;12.300;2023-02-27T02:40:26;6.00;61.60
3727;DHT22;1879;45.876;12.300;2023-02-27T02:43:01;6.00;61.90
3727;DHT22;1879;45.876;12.300;2023-02-27T02:45:40;6.00;61.80
3727;DHT22;1879;45.876;12.300;2023-02-27T02:48:12;6.00;62.30
3727;DHT22;1879;45.876;12.300;2023-02-27T02:50:47;6.00;62.50
3727;DHT22;1879;45.876;12.300;2023-02-27T02:53:23;6.00;62.40
3727;DHT22;1879;45.876;12.300;2023-02-27T02:55:58;6.00;62.20
3727;DHT22;1879;45.876;12.300;2023-02-27T02:58:31;6.00;62.30
3727;DHT22;1879;45.876;12.300;2023-02-27T03:01:03;6.00;62.00
3727;DHT22;1879;45.876;12.300;2023-02-27T03:03:37;6.10;61.70
3727;DHT22;1879;45.876;12.300;2023-02-27T03:06:10;6.10;61.30
3727;DHT22;1879;45.876;12.300;2023-02-27T03:08:43;6.10;61.40
3727;DHT22;1879;45.876;12.300;2023-02-27T03:11:12;6.20;61.00
3727;DHT22;1879;45.876;12.300;2023-02-27T03:13:47;6.20;60.60
3727;DHT22;1879;45.876;12.300;2023-02-27T03:16:20;6.20;60.50
3727;DHT22;1879;45.876;12.300;2023-02-27T03:18:53;6.20;60.10
3727;DHT22;1879;45.876;12.300;2023-02-27T03:21:23;6.20;59.20
3727;DHT22;1879;45.876;12.300;2023-02-27T03:23:53;6.30;58.90
3727;DHT22;1879;45.876;12.300;2023-02-27T03:26:28;6.30;59.00
3727;DHT22;1879;45.876;12.300;2023-02-27T03:29:00;6.40;58.90
3727;DHT22;1879;45.876;12.300;2023-02-27T03:31:32;6.50;58.50
3727;DHT22;1879;45.876;12.300;2023-02-27T03:34:04;6.50;58.20
3727;DHT22;1879;45.876;12.300;2023-02-27T03:36:37;6.50;58.60
3727;DHT22;1879;45.876;12.300;2023-02-27T03:39:15;6.40;58.30
3727;DHT22;1879;45.876;12.300;2023-02-27T03:41:49;6.40;58.40
3727;DHT22;1879;45.876;12.300;2023-02-27T03:44:23;6.40;58.60
3727;DHT22;1879;45.876;12.300;2023-02-27T03:46:51;6.50;58.50
3727;DHT22;1879;45.876;12.300;2023-02-27T03:49:18;6.40;58.50
3727;DHT22;1879;45.876;12.300;2023-02-27T03:51:45;6.50;58.40
3727;DHT22;1879;45.876;12.300;2023-02-27T03:54:14;6.50;58.40
3727;DHT22;1879;45.876;12.300;2023-02-27T03:56:44;6.40;58.60
3727;DHT22;1879;45.876;12.300;2023-02-27T03:59:14;6.40;59.40
3727;DHT22;1879;45.876;12.300;2023-02-27T04:01:42;6.30;60.00
3727;DHT22;1879;45.876;12.300;2023-02-27T04:04:11;6.30;60.40
3727;DHT22;1879;45.876;12.300;2023-02-27T04:06:42;6.20;60.90
3727;DHT22;1879;45.876;12.300;2023-02-27T04:09:39;6.20;61.60
3727;DHT22;1879;45.876;12.300;2023-02-27T04:12:22;6.20;61.60
3727;DHT22;1879;45.876;12.300;2023-02-27T04:15:01;6.20;61.60
3727;DHT22;1879;45.876;12.300;2023-02-27T04:17:30;6.20;62.00
3727;DHT22;1879;45.876;12.300;2023-02-27T04:20:19;6.20;62.60
3727;DHT22;1879;45.876;12.300;2023-02-27T04:22:51;6.20;63.30
3727;DHT22;1879;45.876;12.300;2023-02-27T04:25:29;6.20;63.40
3727;DHT22;1879;45.876;12.300;2023-02-27T04:28:06;6.20;63.90
3727;DHT22;1879;45.876;12.300;2023-02-27T04:30:43;6.20;64.70
3727;DHT22;1879;45.876;12.300;2023-02-27T04:33:17;6.10;65.50
3727;DHT22;1879;45.876;12.300;2023-02-27T04:35:49;6.00;66.20
3727;DHT22;1879;45.876;12.300;2023-02-27T04:38:20;6.00;65.80
3727;DHT22;1879;45.876;12.300;2023-02-27T04:40:51;6.00;65.50
3727;DHT22;1879;45.876;12.300;2023-02-27T04:43:20;6.10;66.30
3727;DHT22;1879;45.876;12.300;2023-02-27T04:45:50;6.00;66.40
3727;DHT22;1879;45.876;12.300;2023-02-27T04:48:21;6.10;67.90
3727;DHT22;1879;45.876;12.300;2023-02-27T04:50:53;6.00;68.20
3727;DHT22;1879;45.876;12.300;2023-02-27T04:53:24;6.00;68.10
3727;DHT22;1879;45.876;12.300;2023-02-27T04:55:54;6.00;67.70
3727;DHT22;1879;45.876;12.300;2023-02-27T04:58:27;6.10;67.20
3727;DHT22;1879;45.876;12.300;2023-02-27T05:01:00;6.10;66.90
3727;DHT22;1879;45.876;12.300;2023-02-27T05:03:31;6.20;65.10
3727;DHT22;1879;45.876;12.300;2023-02-27T05:06:01;6.20;64.30
3727;DHT22;1879;45.876;12.300;2023-02-27T05:08:33;6.10;63.80
3727;DHT22;1879;45.876;12.300;2023-02-27T05:11:06;6.10;63.40
3727;DHT22;1879;45.876;12.300;2023-02-27T05:13:38;6.10;63.40
3727;DHT22;1879;45.876;12.300;2023-02-27T05:16:13;6.10;63.40
3727;DHT22;1879;45.876;12.300;2023-02-27T05:18:41;6.10;63.40
3727;DHT22;1879;45.876;12.300;2023-02-27T05:21:15;6.10;63.00
3727;DHT22;1879;45.876;12.300;2023-02-27T05:23:53;6.10;62.60
3727;DHT22;1879;45.876;12.300;2023-02-27T05:26:30;6.10;62.80
3727;DHT22;1879;45.876;12.300;2023-02-27T05:29:05;6.00;62.80
3727;DHT22;1879;45.876;12.300;2023-02-27T05:31:42;6.00;63.10
3727;DHT22;1879;45.876;12.300;2023-02-27T05:34:15;6.10;63.30
3727;DHT22;1879;45.876;12.300;2023-02-27T05:36:46;6.10;63.00
3727;DHT22;1879;45.876;12.300;2023-02-27T05:39:19;6.10;62.80
3727;DHT22;1879;45.876;12.300;2023-02-27T05:41:49;6.10;63.30
3727;DHT22;1879;45.876;12.300;2023-02-27T05:44:20;6.10;63.50
3727;DHT22;1879;45.876;12.300;2023-02-27T05:46:52;6.10;63.80
3727;DHT22;1879;45.876;12.300;2023-02-27T05:49:24;6.00;64.00
3727;DHT22;1879;45.876;12.300;2023-02-27T05:51:52;6.00;64.20
3727;DHT22;1879;45.876;12.300;2023-02-27T05:54:24;6.00;63.60
3727;DHT22;1879;45.876;12.300;2023-02-27T05:56:57;6.00;63.60
3727;DHT22;1879;45.876;12.300;2023-02-27T05:59:30;6.00;63.70
3727;DHT22;1879;45.876;12.300;2023-02-27T06:01:59;6.00;63.60
3727;DHT22;1879;45.876;12.300;2023-02-27T06:04:27;6.00;63.90
3727;DHT22;1879;45.876;12.300;2023-02-27T06:06:54;6.00;64.50
3727;DHT22;1879;45.876;12.300;2023-02-27T06:09:21;6.00;63.90
3727;DHT22;1879;45.876;12.300;2023-02-27T06:11:48;6.00;63.80
3727;DHT22;1879;45.876;12.300;2023-02-27T06:14:15;6.00;64.40
3727;DHT22;1879;45.876;12.300;2023-02-27T06:16:43;6.00;64.30
3727;DHT22;1879;45.876;12.300;2023-02-27T06:19:12;6.10;64.20
3727;DHT22;1879;45.876;12.300;2023-02-27T06:21:39;6.10;63.90
3727;DHT22;1879;45.876;12.300;2023-02-27T06:24:06;6.10;63.90
3727;DHT22;1879;45.876;12.300;2023-02-27T06:26:33;6.10;64.10
3727;DHT22;1879;45.876;12.300;2023-02-27T06:29:00;6.10;63.70
3727;DHT22;1879;45.876;12.300;2023-02-27T06:31:27;6.00;63.40
3727;DHT22;1879;45.876;12.300;2023-02-27T06:33:54;6.00;63.70
3727;DHT22;1879;45.876;12.300;2023-02-27T06:36:22;6.00;63.10
3727;DHT22;1879;45.876;12.300;2023-02-27T06:38:49;6.10;63.00
3727;DHT22;1879;45.876;12.300;2023-02-27T06:41:16;6.10;63.10
3727;DHT22;1879;45.876;12.300;2023-02-27T06:43:43;6.10;62.80
3727;DHT22;1879;45.876;12.300;2023-02-27T06:46:10;6.20;63.50
3727;DHT22;1879;45.876;12.300;2023-02-27T06:48:37;6.30;62.90
3727;DHT22;1879;45.876;12.300;2023-02-27T06:51:05;6.40;62.30
3727;DHT22;1879;45.876;12.300;2023-02-27T06:53:35;6.50;62.10
3727;DHT22;1879;45.876;12.300;2023-02-27T06:56:03;6.60;62.90
3727;DHT22;1879;45.876;12.300;2023-02-27T06:58:30;6.70;62.00
3727;DHT22;1879;45.876;12.300;2023-02-27T07:00:58;6.70;61.20
3727;DHT22;1879;45.876;12.300;2023-02-27T07:03:25;6.80;61.30
3727;DHT22;1879;45.876;12.300;2023-02-27T07:05:52;6.80;60.90
3727;DHT22;1879;45.876;12.300;2023-02-27T07:08:19;6.90;60.80
3727;DHT22;1879;45.876;12.300;2023-02-27T07:10:48;7.00;61.60
3727;DHT22;1879;45.876;12.300;2023-02-27T07:13:15;7.00;63.30
3727;DHT22;1879;45.876;12.300;2023-02-27T07:15:42;7.10;60.40
3727;DHT22;1879;45.876;12.300;2023-02-27T07:18:12;7.20;59.90
3727;DHT22;1879;45.876;12.300;2023-02-27T07:20:39;7.30;60.30
3727;DHT22;1879;45.876;12.300;2023-02-27T07:23:06;7.30;59.80
3727;DHT22;1879;45.876;12.300;2023-02-27T07:25:34;7.40;59.90
3727;DHT22;1879;45.876;12.300;2023-02-27T07:28:02;7.30;59.30
3727;DHT22;1879;45.876;12.300;2023-02-27T07:30:29;7.20;59.00
3727;DHT22;1879;45.876;12.300;2023-02-27T07:32:59;7.40;59.90
3727;DHT22;1879;45.876;12.300;2023-02-27T07:35:27;7.50;59.40
3727;DHT22;1879;45.876;12.300;2023-02-27T07:37:54;7.50;58.90
3727;DHT22;1879;45.876;12.300;2023-02-27T07:40:21;7.50;59.00
3727;DHT22;1879;45.876;12.300;2023-02-27T07:42:48;7.50;58.80
3727;DHT22;1879;45.876;12.300;2023-02-27T07:45:17;7.50;58.60
3727;DHT22;1879;45.876;12.300;2023-02-27T07:47:44;7.50;59.00
3727;DHT22;1879;45.876;12.300;2023-02-27T07:50:11;7.60;58.60
3727;DHT22;1879;45.876;12.300;2023-02-27T07:52:39;7.60;58.30
3727;DHT22;1879;45.876;12.300;2023-02-27T07:55:07;7.70;58.50
3727;DHT22;1879;45.876;12.300;2023-02-27T07:57:35;7.70;58.00
3727;DHT22;1879;45.876;12.300;2023-02-27T08:00:04;7.70;57.90
3727;DHT22;1879;45.876;12.300;2023-02-27T08:02:33;7.80;58.10
3727;DHT22;1879;45.876;12.300;2023-02-27T08:05:00;7.80;57.90
3727;DHT22;1879;45.876;12.300;2023-02-27T08:07:27;7.90;56.90
3727;DHT22;1879;45.876;12.300;2023-02-27T08:09:54;8.10;57.20
3727;DHT22;1879;45.876;12.300;2023-02-27T08:12:21;8.30;56.60
3727;DHT22;1879;45.876;12.300;2023-02-27T08:14:48;8.30;56.20
3727;DHT22;1879;45.876;12.300;2023-02-27T08:17:15;8.30;56.50
3727;DHT22;1879;45.876;12.300;2023-02-27T08:19:43;8.20;56.00
3727;DHT22;1879;45.876;12.300;2023-02-27T08:22:10;8.20;56.30
3727;DHT22;1879;45.876;12.300;2023-02-27T08:24:37;8.40;56.10
3727;DHT22;1879;45.876;12.300;2023-02-27T08:27:05;8.60;56.10
3727;DHT22;1879;45.876;12.300;2023-02-27T08:29:32;8.80;56.10
3727;DHT22;1879;45.876;12.300;2023-02-27T08:31:59;8.80;55.40
3727;DHT22;1879;45.876;12.300;2023-02-27T08:34:27;8.90;55.40
3727;DHT22;1879;45.876;12.300;2023-02-27T08:36:56;8.90;55.10
3727;DHT22;1879;45.876;12.300;2023-02-27T08:39:23;9.10;55.10
3727;DHT22;1879;45.876;12.300;2023-02-27T08:41:50;9.20;54.40
3727;DHT22;1879;45.876;12.300;2023-02-27T08:44:18;9.10;53.50
3727;DHT22;1879;45.876;12.300;2023-02-27T08:46:46;9.10;54.60
3727;DHT22;1879;45.876;12.300;2023-02-27T08:49:13;9.20;54.50
3727;DHT22;1879;45.876;12.300;2023-02-27T08:51:40;9.30;54.40
3727;DHT22;1879;45.876;12.300;2023-02-27T08:54:08;9.40;54.50
3727;DHT22;1879;45.876;12.300;2023-02-27T08:56:37;9.60;54.70
3727;DHT22;1879;45.876;12.300;2023-02-27T08:59:04;9.90;54.40
3727;DHT22;1879;45.876;12.300;2023-02-27T09:01:31;10.00;52.90
3727;DHT22;1879;45.876;12.300;2023-02-27T09:04:00;10.00;52.20
3727;DHT22;1879;45.876;12.300;2023-02-27T09:06:27;10.00;52.00
3727;DHT22;1879;45.876;12.300;2023-02-27T09:08:55;9.80;52.50
3727;DHT22;1879;45.876;12.300;2023-02-27T09:11:24;9.90;55.50
3727;DHT22;1879;45.876;12.300;2023-02-27T09:13:52;10.30;55.00
3727;DHT22;1879;45.876;12.300;2023-02-27T09:16:20;10.70;53.10
3727;DHT22;1879;45.876;12.300;2023-02-27T09:18:48;10.80;51.00
3727;DHT22;1879;45.876;12.300;2023-02-27T09:21:16;10.80;50.80
3727;DHT22;1879;45.876;12.300;2023-02-27T09:23:43;10.90;50.60
3727;DHT22;1879;45.876;12.300;2023-02-27T09:26:10;11.00;50.00
3727;DHT22;1879;45.876;12.300;2023-02-27T09:28:38;11.10;50.00
3727;DHT22;1879;45.876;12.300;2023-02-27T09:31:06;11.30;49.60
3727;DHT22;1879;45.876;12.300;2023-02-27T09:33:34;11.40;48.80
3727;DHT22;1879;45.876;12.300;2023-02-27T09:36:03;11.30;47.60
3727;DHT22;1879;45.876;12.300;2023-02-27T09:38:31;11.50;48.80
3727;DHT22;1879;45.876;12.300;2023-02-27T09:40:58;11.60;48.30
3727;DHT22;1879;45.876;12.300;2023-02-27T09:43:31;11.50;47.10
3727;DHT22;1879;45.876;12.300;2023-02-27T09:46:02;11.40;46.80
3727;DHT22;1879;45.876;12.300;2023-02-27T09:48:31;11.60;48.10
3727;DHT22;1879;45.876;12.300;2023-02-27T09:51:00;11.70;47.10
3727;DHT22;1879;45.876;12.300;2023-02-27T09:53:31;11.60;46.90
3727;DHT22;1879;45.876;12.300;2023-02-27T09:56:05;11.50;45.10
3727;DHT22;1879;45.876;12.300;2023-02-27T09:58:45;11.30;45.20
3727;DHT22;1879;45.876;12.300;2023-02-27T10:01:20;11.20;44.20
3727;DHT22;1879;45.876;12.300;2023-02-27T10:03:58;11.50;44.80
3727;DHT22;1879;45.876;12.300;2023-02-27T10:06:35;11.70;45.40
3727;DHT22;1879;45.876;12.300;2023-02-27T10:09:12;11.90;44.00
3727;DHT22;1879;45.876;12.300;2023-02-27T10:11:50;12.10;43.70
3727;DHT22;1879;45.876;12.300;2023-02-27T10:14:27;12.30;44.00
3727;DHT22;1879;45.876;12.300;2023-02-27T10:17:04;12.20;42.50
3727;DHT22;1879;45.876;12.300;2023-02-27T10:19:34;12.20;41.40
3727;DHT22;1879;45.876;12.300;2023-02-27T10:22:05;12.10;41.40
3727;DHT22;1879;45.876;12.300;2023-02-27T10:24:37;12.10;41.90
3727;DHT22;1879;45.876;12.300;2023-02-27T10:27:12;12.10;41.70
3727;DHT22;1879;45.876;12.300;2023-02-27T10:29:40;11.90;40.80
3727;DHT22;1879;45.876;12.300;2023-02-27T10:32:13;11.80;41.10
3727;DHT22;1879;45.876;12.300;2023-02-27T10:34:44;11.80;41.70
3727;DHT22;1879;45.876;12.300;2023-02-27T10:37:14;11.80;41.70
3727;DHT22;1879;45.876;12.300;2023-02-27T10:39:45;11.80;41.30
3727;DHT22;1879;45.876;12.300;2023-02-27T10:42:14;11.70;40.60
3727;DHT22;1879;45.876;12.300;2023-02-27T10:44:42;11.70;41.20
3727;DHT22;1879;45.876;12.300;2023-02-27T10:47:13;11.70;41.50
3727;DHT22;1879;45.876;12.300;2023-02-27T10:49:42;11.70;41.70
3727;DHT22;1879;45.876;12.300;2023-02-27T10:52:11;11.80;40.80
3727;DHT22;1879;45.876;12.300;2023-02-27T10:54:39;11.80;40.90
3727;DHT22;1879;45.876;12.300;2023-02-27T10:57:18;11.90;41.20
3727;DHT22;1879;45.876;12.300;2023-02-27T10:59:52;12.10;40.90
3727;DHT22;1879;45.876;12.300;2023-02-27T11:02:24;12.10;41.10
3727;DHT22;1879;45.876;12.300;2023-02-27T11:04:53;12.00;39.90
3727;DHT22;1879;45.876;12.300;2023-02-27T11:07:32;12.00;40.90
3727;DHT22;1879;45.876;12.300;2023-02-27T11:10:03;12.10;41.10
3727;DHT22;1879;45.876;12.300;2023-02-27T11:12:33;12.20;41.40
3727;DHT22;1879;45.876;12.300;2023-02-27T11:15:20;12.30;41.40
3727;DHT22;1879;45.876;12.300;2023-02-27T11:17:48;12.40;41.20
3727;DHT22;1879;45.876;12.300;2023-02-27T11:20:32;12.50;41.80
3727;DHT22;1879;45.876;12.300;2023-02-27T11:23:03;12.40;40.30
3727;DHT22;1879;45.876;12.300;2023-02-27T11:25:31;12.50;41.00
3727;DHT22;1879;45.876;12.300;2023-02-27T11:28:20;12.70;41.60
3727;DHT22;1879;45.876;12.300;2023-02-27T11:30:59;13.00;40.90
3727;DHT22;1879;45.876;12.300;2023-02-27T11:33:30;13.40;40.40
3727;DHT22;1879;45.876;12.300;2023-02-27T11:35:59;13.80;39.50
3727;DHT22;1879;45.876;12.300;2023-02-27T11:38:28;14.80;39.70
3727;DHT22;1879;45.876;12.300;2023-02-27T11:40:57;15.60;39.90
3727;DHT22;1879;45.876;12.300;2023-02-27T11:43:26;16.90;40.00
3727;DHT22;1879;45.876;12.300;2023-02-27T11:45:56;16.80;37.90
3727;DHT22;1879;45.876;12.300;2023-02-27T11:48:30;16.40;37.40
3727;DHT22;1879;45.876;12.300;2023-02-27T11:51:16;17.20;38.30
3727;DHT22;1879;45.876;12.300;2023-02-27T11:54:05;18.60;37.00
3727;DHT22;1879;45.876;12.300;2023-02-27T11:56:35;20.70;36.00
3727;DHT22;1879;45.876;12.300;2023-02-27T11:59:19;21.90;35.80
3727;DHT22;1879;45.876;12.300;2023-02-27T12:01:52;22.00;32.30
3727;DHT22;1879;45.876;12.300;2023-02-27T12:04:25;22.60;32.70
3727;DHT22;1879;45.876;12.300;2023-02-27T12:06:57;23.10;32.30
3727;DHT22;1879;45.876;12.300;2023-02-27T12:09:35;24.20;31.70
3727;DHT22;1879;45.876;12.300;2023-02-27T12:12:10;24.70;30.30
3727;DHT22;1879;45.876;12.300;2023-02-27T12:14:44;23.30;29.70
3727;DHT22;1879;45.876;12.300;2023-02-27T12:17:18;21.60;29.50
3727;DHT22;1879;45.876;12.300;2023-02-27T12:20:01;19.80;29.40
3727;DHT22;1879;45.876;12.300;2023-02-27T12:22:35;18.40;30.20
3727;DHT22;1879;45.876;12.300;2023-02-27T12:25:06;17.60;31.70
3727;DHT22;1879;45.876;12.300;2023-02-27T12:27:43;18.10;32.50
3727;DHT22;1879;45.876;12.300;2023-02-27T12:30:15;18.20;32.50
3727;DHT22;1879;45.876;12.300;2023-02-27T12:32:47;18.40;32.20
3727;DHT22;1879;45.876;12.300;2023-02-27T12:35:19;17.50;32.10
3727;DHT22;1879;45.876;12.300;2023-02-27T12:37:48;16.80;32.50
3727;DHT22;1879;45.876;12.300;2023-02-27T12:40:18;16.10;33.30
3727;DHT22;1879;45.876;12.300;2023-02-27T12:43:11;16.10;33.50
3727;DHT22;1879;45.876;12.300;2023-02-27T12:46:20;15.80;33.30
3727;DHT22;1879;45.876;12.300;2023-02-27T12:48:58;15.50;36.40
3727;DHT22;1879;45.876;12.300;2023-02-27T12:51:42;15.40;36.70
3727;DHT22;1879;45.876;12.300;2023-02-27T12:54:22;15.00;34.40
3727;DHT22;1879;45.876;12.300;2023-02-27T12:57:00;15.10;35.20
3727;DHT22;1879;45.876;12.300;2023-02-27T12:59:39;15.10;34.60
3727;DHT22;1879;45.876;12.300;2023-02-27T13:02:23;15.30;35.20
3727;DHT22;1879;45.876;12.300;2023-02-27T13:04:59;15.30;34.80
3727;DHT22;1879;45.876;12.300;2023-02-27T13:07:33;15.20;34.70
3727;DHT22;1879;45.876;12.300;2023-02-27T13:10:07;15.00;34.60
3727;DHT22;1879;45.876;12.300;2023-02-27T13:12:40;14.80;34.70
3727;DHT22;1879;45.876;12.300;2023-02-27T13:15:14;14.50;34.60
3727;DHT22;1879;45.876;12.300;2023-02-27T13:17:47;14.30;35.10
3727;DHT22;1879;45.876;12.300;2023-02-27T13:20:25;14.10;35.70
3727;DHT22;1879;45.876;12.300;2023-02-27T13:23:02;14.00;35.80
3727;DHT22;1879;45.876;12.300;2023-02-27T13:25:34;13.70;36.40
3727;DHT22;1879;45.876;12.300;2023-02-27T13:28:05;13.40;36.50
3727;DHT22;1879;45.876;12.300;2023-02-27T13:30:38;13.30;36.80
3727;DHT22;1879;45.876;12.300;2023-02-27T13:33:17;13.20;36.70
3727;DHT22;1879;45.876;12.300;2023-02-27T13:35:52;13.20;36.90
3727;DHT22;1879;45.876;12.300;2023-02-27T13:38:40;13.00;37.20
3727;DHT22;1879;45.876;12.300;2023-02-27T13:41:37;13.00;37.30
3727;DHT22;1879;45.876;12.300;2023-02-27T13:47:49;12.80;37.80
3727;DHT22;1879;45.876;12.300;2023-02-27T13:50:48;12.90;37.70
3727;DHT22;1879;45.876;12.300;2023-02-27T13:53:18;12.90;37.80
3727;DHT22;1879;45.876;12.300;2023-02-27T13:55:47;12.80;37.60
3727;DHT22;1879;45.876;12.300;2023-02-27T13:58:20;12.80;38.00
3727;DHT22;1879;45.876;12.300;2023-02-27T14:00:59;13.10;41.00
3727;DHT22;1879;45.876;12.300;2023-02-27T14:03:28;13.30;38.00
3727;DHT22;1879;45.876;12.300;2023-02-27T14:06:01;13.20;37.90
3727;DHT22;1879;45.876;12.300;2023-02-27T14:08:34;13.20;37.70
3727;DHT22;1879;45.876;12.300;2023-02-27T14:11:15;13.40;38.00
3727;DHT22;1879;45.876;12.300;2023-02-27T14:14:01;13.60;37.80
3727;DHT22;1879;45.876;12.300;2023-02-27T14:16:51;13.60;37.80
3727;DHT22;1879;45.876;12.300;2023-02-27T14:19:44;13.50;37.70
3727;DHT22;1879;45.876;12.300;2023-02-27T14:22:35;13.50;37.50
3727;DHT22;1879;45.876;12.300;2023-02-27T14:25:15;13.60;37.90
3727;DHT22;1879;45.876;12.300;2023-02-27T14:27:53;13.50;37.50
3727;DHT22;1879;45.876;12.300;2023-02-27T14:30:25;13.30;37.70
3727;DHT22;1879;45.876;12.300;2023-02-27T14:32:57;13.20;38.50
3727;DHT22;1879;45.876;12.300;2023-02-27T14:35:27;13.20;38.30
3727;DHT22;1879;45.876;12.300;2023-02-27T14:37:54;13.20;38.00
3727;DHT22;1879;45.876;12.300;2023-02-27T14:40:31;13.30;38.30
3727;DHT22;1879;45.876;12.300;2023-02-27T14:43:09;13.40;37.90
3727;DHT22;1879;45.876;12.300;2023-02-27T14:45:40;13.50;37.90
3727;DHT22;1879;45.876;12.300;2023-02-27T14:48:08;13.60;38.50
3727;DHT22;1879;45.876;12.300;2023-02-27T14:50:39;13.80;38.30
3727;DHT22;1879;45.876;12.300;2023-02-27T14:53:21;13.80;37.90
3727;DHT22;1879;45.876;12.300;2023-02-27T14:55:52;13.70;37.50
3727;DHT22;1879;45.876;12.300;2023-02-27T14:58:21;13.50;37.30
3727;DHT22;1879;45.876;12.300;2023-02-27T15:00:57;13.40;37.50
3727;DHT22;1879;45.876;12.300;2023-02-27T15:03:30;13.30;37.60
3727;DHT22;1879;45.876;12.300;2023-02-27T15:06:00;13.10;37.70
3727;DHT22;1879;45.876;12.300;2023-02-27T15:08:29;12.90;37.50
3727;DHT22;1879;45.876;12.300;2023-02-27T15:10:58;12.70;38.50
3727;DHT22;1879;45.876;12.300;2023-02-27T15:13:29;12.50;38.70
3727;DHT22;1879;45.876;12.300;2023-02-27T15:16:32;12.40;38.80
3727;DHT22;1879;45.876;12.300;2023-02-27T15:19:09;12.20;38.90
3727;DHT22;1879;45.876;12.300;2023-02-27T15:21:39;12.10;39.70
3727;DHT22;1879;45.876;12.300;2023-02-27T15:24:25;12.10;40.00
3727;DHT22;1879;45.876;12.300;2023-02-27T15:26:57;12.00;40.40
3727;DHT22;1879;45.876;12.300;2023-02-27T15:29:31;11.80;40.80
3727;DHT22;1879;45.876;12.300;2023-02-27T15:32:00;11.70;41.10
3727;DHT22;1879;45.876;12.300;2023-02-27T15:34:27;11.70;41.20
3727;DHT22;1879;45.876;12.300;2023-02-27T15:36:56;11.70;41.80
3727;DHT22;1879;45.876;12.300;2023-02-27T15:39:25;11.70;41.10
3727;DHT22;1879;45.876;12.300;2023-02-27T15:41:55;12.10;41.20
3727;DHT22;1879;45.876;12.300;2023-02-27T15:44:25;12.50;40.80
3727;DHT22;1879;45.876;12.300;2023-02-27T15:46:56;12.60;40.50
3727;DHT22;1879;45.876;12.300;2023-02-27T15:49:25;12.60;40.60
3727;DHT22;1879;45.876;12.300;2023-02-27T15:52:00;12.60;40.80
3727;DHT22;1879;45.876;12.300;2023-02-27T15:54:31;12.50;40.80
3727;DHT22;1879;45.876;12.300;2023-02-27T15:56:59;12.30;42.10
3727;DHT22;1879;45.876;12.300;2023-02-27T15:59:32;12.10;40.90
3727;DHT22;1879;45.876;12.300;2023-02-27T16:02:00;12.00;41.20
3727;DHT22;1879;45.876;12.300;2023-02-27T16:04:28;11.80;41.70
3727;DHT22;1879;45.876;12.300;2023-02-27T16:07:00;11.70;42.10
3727;DHT22;1879;45.876;12.300;2023-02-27T16:09:30;11.50;42.00
3727;DHT22;1879;45.876;12.300;2023-02-27T16:12:31;11.40;42.80
3727;DHT22;1879;45.876;12.300;2023-02-27T16:15:25;11.00;43.70
3727;DHT22;1879;45.876;12.300;2023-02-27T16:17:59;10.90;50.90
3727;DHT22;1879;45.876;12.300;2023-02-27T16:20:38;10.70;43.40
3727;DHT22;1879;45.876;12.300;2023-02-27T16:23:15;10.60;43.30
3727;DHT22;1879;45.876;12.300;2023-02-27T16:25:59;10.50;43.20
3727;DHT22;1879;45.876;12.300;2023-02-27T16:28:28;10.30;43.60
3727;DHT22;1879;45.876;12.300;2023-02-27T16:30:57;10.20;43.80
3727;DHT22;1879;45.876;12.300;2023-02-27T16:33:26;10.20;44.10
3727;DHT22;1879;45.876;12.300;2023-02-27T16:36:13;10.00;44.50
3727;DHT22;1879;45.876;12.300;2023-02-27T16:38:40;9.90;45.60